createdAt,value
2018-04-19T00:00:58.362Z,76.12
2018-04-19T00:01:58.372Z,76.12
2018-04-19T00:02:58.380Z,76.21
2018-04-19T00:03:58.386Z,76.12
2018-04-19T00:04:58.429Z,76.02
2018-04-19T00:05:58.401Z,76.12
2018-04-19T00:06:58.450Z,75.54
2018-04-19T00:07:58.568Z,76.02
2018-04-19T00:08:58.386Z,75.63
2018-04-19T00:09:58.352Z,75.92
2018-04-19T00:10:58.357Z,76.02
2018-04-19T00:11:58.461Z,75.54
2018-04-19T00:12:58.391Z,76.02
2018-04-19T00:13:58.372Z,75.73
2018-04-19T00:14:58.388Z,75.54
2018-04-19T00:15:58.413Z,75.73
2018-04-19T00:16:58.470Z,75.79
2018-04-19T00:17:58.398Z,75.60
2018-04-19T00:18:58.403Z,75.54
2018-04-19T00:19:58.395Z,75.31
2018-04-19T00:20:58.449Z,75.50
2018-04-19T00:21:58.407Z,76.02
2018-04-19T00:22:58.400Z,75.98
2018-04-19T00:23:58.398Z,75.50
2018-04-19T00:24:58.394Z,75.79
2018-04-19T00:25:58.425Z,75.89
2018-04-19T00:26:58.414Z,75.70
2018-04-19T00:27:58.443Z,75.50
2018-04-19T00:28:58.436Z,75.98
2018-04-19T00:29:58.419Z,75.40
2018-04-19T00:30:58.467Z,75.89
2018-04-19T00:31:58.451Z,75.40
2018-04-19T00:32:58.450Z,75.02
2018-04-19T00:33:58.427Z,74.35
2018-04-19T00:34:58.425Z,74.35
2018-04-19T00:35:58.582Z,74.93
2018-04-19T00:36:58.427Z,74.93
2018-04-19T00:37:58.471Z,74.64
2018-04-19T00:38:58.440Z,74.16
2018-04-19T00:39:58.493Z,73.68
2018-04-19T00:40:58.469Z,73.87
2018-04-19T00:41:58.495Z,73.52
2018-04-19T00:42:58.510Z,73.39
2018-04-19T00:43:58.466Z,73.52
2018-04-19T00:44:58.503Z,73.39
2018-04-19T00:45:58.475Z,72.91
2018-04-19T00:46:58.522Z,73.68
2018-04-19T00:47:58.476Z,73.39
2018-04-19T00:48:58.572Z,73.30
2018-04-19T00:49:58.496Z,73.58
2018-04-19T00:50:58.505Z,73.49
2018-04-19T00:51:58.542Z,73.30
2018-04-19T00:52:58.549Z,73.20
2018-04-19T00:53:58.500Z,73.30
2018-04-19T00:54:58.519Z,73.68
2018-04-19T00:55:58.515Z,72.91
2018-04-19T00:56:58.555Z,73.58
2018-04-19T00:57:58.530Z,72.43
2018-04-19T00:58:58.549Z,73.00
2018-04-19T00:59:58.590Z,73.10
2018-04-19T01:00:58.606Z,72.91
2018-04-19T01:01:58.557Z,72.33
2018-04-19T01:02:58.553Z,72.72
2018-04-19T01:03:58.568Z,73.20
2018-04-19T01:04:58.585Z,72.91
2018-04-19T01:05:58.607Z,72.68
2018-04-19T01:06:58.615Z,73.39
2018-04-19T01:07:58.570Z,72.63
2018-04-19T01:08:58.589Z,73.10
2018-04-19T01:09:58.560Z,72.63
2018-04-19T01:10:58.609Z,73.00
2018-04-19T01:11:58.706Z,72.91
2018-04-19T01:12:58.596Z,72.91
2018-04-19T01:13:58.579Z,73.68
2018-04-19T01:14:58.627Z,73.07
2018-04-19T01:15:58.598Z,73.35
2018-04-19T01:16:58.591Z,73.10
2018-04-19T01:17:58.659Z,73.58
2018-04-19T01:18:58.650Z,73.10
2018-04-19T01:19:59.305Z,73.55
2018-04-19T01:20:58.603Z,73.45
2018-04-19T01:21:58.629Z,73.26
2018-04-19T01:22:58.635Z,73.16
2018-04-19T01:23:58.619Z,73.55
2018-04-19T01:24:58.661Z,73.16
2018-04-19T01:25:58.677Z,73.45
2018-04-19T01:26:58.730Z,73.16
2018-04-19T01:27:58.705Z,73.35
2018-04-19T01:28:58.659Z,73.55
2018-04-19T01:29:58.648Z,73.35
2018-04-19T01:30:58.668Z,73.45
2018-04-19T01:31:58.705Z,72.78
2018-04-19T01:33:13.452Z,72.97
2018-04-19T01:33:58.751Z,73.74
2018-04-19T01:34:58.712Z,73.16
2018-04-19T01:35:58.692Z,73.35
2018-04-19T01:36:58.702Z,73.26
2018-04-19T01:37:58.728Z,73.26
2018-04-19T01:38:58.725Z,73.35
2018-04-19T01:39:58.715Z,73.65
2018-04-19T01:40:58.705Z,74.41
2018-04-19T01:41:58.716Z,73.83
2018-04-19T01:42:58.801Z,73.93
2018-04-19T01:43:58.708Z,74.37
2018-04-19T01:44:58.740Z,73.65
2018-04-19T01:45:58.746Z,73.22
2018-04-19T01:46:58.675Z,73.45
2018-04-19T01:47:58.733Z,73.80
2018-04-19T01:48:58.708Z,73.45
2018-04-19T01:49:58.711Z,73.32
2018-04-19T01:50:58.739Z,74.08
2018-04-19T01:51:58.706Z,74.18
2018-04-19T01:52:58.696Z,74.37
2018-04-19T01:53:58.726Z,74.18
2018-04-19T01:54:58.713Z,73.90
2018-04-19T01:55:58.746Z,73.99
2018-04-19T01:56:58.739Z,73.99
2018-04-19T01:57:58.740Z,74.76
2018-04-19T01:58:58.816Z,74.57
2018-04-19T01:59:58.740Z,74.47
2018-04-19T02:00:58.776Z,74.85
2018-04-19T02:01:58.744Z,74.57
2018-04-19T02:02:58.761Z,74.66
2018-04-19T02:03:58.796Z,74.47
2018-04-19T02:04:58.783Z,74.27
2018-04-19T02:05:58.764Z,74.66
2018-04-19T02:06:58.842Z,74.37
2018-04-19T02:07:58.802Z,74.66
2018-04-19T02:08:58.844Z,74.47
2018-04-19T02:09:58.785Z,74.27
2018-04-19T02:10:58.791Z,74.05
2018-04-19T02:11:58.829Z,74.76
2018-04-19T02:12:58.803Z,74.27
2018-04-19T02:13:58.778Z,74.66
2018-04-19T02:14:58.805Z,74.57
2018-04-19T02:15:58.838Z,74.57
2018-04-19T02:16:58.863Z,74.18
2018-04-19T02:17:58.858Z,73.99
2018-04-19T02:18:58.858Z,74.08
2018-04-19T02:19:58.815Z,74.18
2018-04-19T02:20:58.888Z,73.99
2018-04-19T02:21:58.845Z,72.80
2018-04-19T02:22:58.827Z,73.51
2018-04-19T02:23:58.847Z,73.61
2018-04-19T02:24:58.845Z,73.28
2018-04-19T02:25:58.853Z,73.32
2018-04-19T02:26:58.857Z,73.41
2018-04-19T02:27:58.844Z,73.86
2018-04-19T02:28:58.866Z,73.70
2018-04-19T02:29:58.891Z,74.24
2018-04-19T02:30:58.903Z,74.15
2018-04-19T02:31:59.009Z,74.05
2018-04-19T02:32:58.912Z,74.24
2018-04-19T02:33:58.970Z,73.57
2018-04-19T02:34:58.912Z,73.76
2018-04-19T02:35:58.924Z,73.66
2018-04-19T02:36:58.962Z,73.09
2018-04-19T02:37:58.963Z,73.09
2018-04-19T02:38:58.919Z,73.38
2018-04-19T02:39:58.923Z,73.19
2018-04-19T02:40:58.952Z,73.19
2018-04-19T02:41:58.916Z,72.90
2018-04-19T02:42:58.951Z,72.90
2018-04-19T02:43:58.943Z,73.19
2018-04-19T02:44:58.930Z,73.28
2018-04-19T02:45:58.972Z,73.19
2018-04-19T02:46:58.916Z,73.57
2018-04-19T02:47:58.990Z,73.38
2018-04-19T02:48:58.922Z,73.38
2018-04-19T02:49:58.952Z,73.28
2018-04-19T02:50:58.950Z,73.09
2018-04-19T02:51:58.938Z,72.90
2018-04-19T02:52:58.925Z,73.19
2018-04-19T02:53:58.959Z,72.90
2018-04-19T02:54:58.922Z,73.57
2018-04-19T02:55:58.949Z,73.28
2018-04-19T02:56:58.953Z,73.57
2018-04-19T02:57:58.978Z,73.28
2018-04-19T02:58:58.990Z,73.66
2018-04-19T02:59:58.964Z,73.09
2018-04-19T03:00:58.944Z,73.09
2018-04-19T03:01:59.011Z,73.38
2018-04-19T03:02:58.931Z,73.28
2018-04-19T03:03:58.982Z,73.57
2018-04-19T03:04:59.018Z,74.05
2018-04-19T03:05:58.981Z,74.05
2018-04-19T03:06:59.030Z,73.86
2018-04-19T03:07:58.984Z,74.15
2018-04-19T03:08:59.005Z,74.43
2018-04-19T03:09:58.957Z,74.62
2018-04-19T03:10:59.850Z,74.62
2018-04-19T03:11:58.980Z,74.33
2018-04-19T03:12:58.989Z,74.33
2018-04-19T03:13:59.001Z,74.52
2018-04-19T03:14:58.983Z,74.33
2018-04-19T03:15:59.065Z,74.43
2018-04-19T03:16:58.997Z,74.33
2018-04-19T03:17:59.020Z,74.52
2018-04-19T03:18:59.048Z,74.24
2018-04-19T03:19:59.020Z,73.95
2018-04-19T03:20:59.050Z,74.01
2018-04-19T03:21:59.058Z,73.86
2018-04-19T03:22:59.039Z,74.33
2018-04-19T03:23:59.037Z,74.52
2018-04-19T03:24:59.088Z,74.58
2018-04-19T03:25:59.119Z,74.82
2018-04-19T03:26:59.049Z,74.58
2018-04-19T03:27:59.081Z,74.87
2018-04-19T03:28:59.054Z,74.20
2018-04-19T03:29:59.071Z,74.40
2018-04-19T03:30:59.031Z,74.58
2018-04-19T03:31:59.072Z,74.77
2018-04-19T03:32:59.096Z,74.58
2018-04-19T03:33:59.054Z,74.30
2018-04-19T03:34:59.092Z,74.58
2018-04-19T03:35:59.061Z,74.68
2018-04-19T03:36:59.144Z,74.87
2018-04-19T03:37:59.054Z,75.07
2018-04-19T03:38:59.080Z,75.45
2018-04-19T03:39:59.091Z,74.77
2018-04-19T03:40:59.103Z,74.77
2018-04-19T03:41:59.134Z,75.07
2018-04-19T03:42:59.102Z,74.87
2018-04-19T03:43:59.128Z,75.16
2018-04-19T03:44:59.125Z,74.97
2018-04-19T03:45:59.107Z,75.64
2018-04-19T03:46:59.103Z,75.93
2018-04-19T03:47:59.173Z,75.83
2018-04-19T03:48:59.098Z,76.40
2018-04-19T03:49:59.112Z,75.31
2018-04-19T03:50:59.256Z,76.31
2018-04-19T03:51:59.156Z,76.60
2018-04-19T03:52:59.123Z,76.65
2018-04-19T03:53:59.151Z,77.23
2018-04-19T03:54:59.176Z,76.40
2018-04-19T03:55:59.144Z,76.50
2018-04-19T03:56:59.115Z,76.40
2018-04-19T03:57:59.219Z,75.83
2018-04-19T03:58:59.197Z,76.40
2018-04-19T03:59:59.131Z,76.27
2018-04-19T04:00:59.302Z,76.46
2018-04-19T04:01:59.163Z,77.23
2018-04-19T04:02:59.166Z,77.61
2018-04-19T04:03:59.162Z,78.57
2018-04-19T04:04:59.167Z,78.76
2018-04-19T04:05:59.176Z,78.19
2018-04-19T04:06:59.232Z,79.72
2018-04-19T04:07:59.231Z,79.39
2018-04-19T04:08:59.160Z,79.29
2018-04-19T04:09:59.173Z,79.87
2018-04-19T04:10:59.259Z,79.96
2018-04-19T04:11:59.166Z,80.92
2018-04-19T04:12:59.253Z,80.82
2018-04-19T04:13:59.197Z,81.02
2018-04-19T04:14:59.249Z,81.11
2018-04-19T04:15:59.208Z,80.92
2018-04-19T04:16:59.227Z,80.82
2018-04-19T04:17:59.186Z,80.92
2018-04-19T04:18:59.228Z,80.82
2018-04-19T04:19:59.233Z,80.63
2018-04-19T04:20:59.232Z,80.63
2018-04-19T04:21:59.250Z,81.30
2018-04-19T04:22:59.230Z,80.92
2018-04-19T04:23:59.238Z,81.30
2018-04-19T04:24:59.261Z,79.96
2018-04-19T04:25:59.272Z,80.06
2018-04-19T04:26:59.251Z,80.06
2018-04-19T04:27:59.213Z,81.11
2018-04-19T04:28:59.246Z,79.58
2018-04-19T04:29:59.273Z,79.24
2018-04-19T04:30:59.234Z,79.29
2018-04-19T04:31:59.325Z,79.72
2018-04-19T04:32:59.242Z,79.24
2018-04-19T04:33:59.274Z,79.52
2018-04-19T04:34:59.304Z,79.52
2018-04-19T04:35:59.295Z,79.24
2018-04-19T04:36:59.279Z,79.58
2018-04-19T04:37:59.276Z,79.72
2018-04-19T04:38:59.295Z,79.33
2018-04-19T04:39:59.314Z,79.33
2018-04-19T04:40:59.276Z,79.43
2018-04-19T04:41:59.282Z,79.81
2018-04-19T04:42:59.319Z,79.33
2018-04-19T04:43:59.279Z,79.81
2018-04-19T04:44:59.270Z,80.29
2018-04-19T04:45:59.311Z,80.00
2018-04-19T04:46:59.307Z,80.00
2018-04-19T04:47:59.328Z,80.38
2018-04-19T04:48:59.267Z,79.33
2018-04-19T04:49:59.877Z,79.24
2018-04-19T04:50:59.380Z,79.33
2018-04-19T04:51:59.335Z,79.33
2018-04-19T04:52:59.298Z,79.62
2018-04-19T04:53:59.343Z,79.24
2018-04-19T04:54:59.291Z,79.43
2018-04-19T04:55:59.323Z,79.52
2018-04-19T04:56:59.364Z,79.62
2018-04-19T04:57:59.435Z,79.05
2018-04-19T04:58:59.336Z,78.38
2018-04-19T04:59:59.320Z,78.66
2018-04-19T05:00:59.334Z,78.57
2018-04-19T05:01:59.395Z,78.76
2018-04-19T05:02:59.395Z,78.76
2018-04-19T05:03:59.372Z,78.57
2018-04-19T05:04:59.333Z,78.76
2018-04-19T05:05:59.377Z,78.76
2018-04-19T05:06:59.373Z,78.86
2018-04-19T05:07:59.369Z,78.95
2018-04-19T05:08:59.350Z,78.86
2018-04-19T05:09:59.377Z,78.95
2018-04-19T05:10:59.388Z,78.38
2018-04-19T05:11:59.407Z,77.90
2018-04-19T05:12:59.360Z,77.61
2018-04-19T05:13:59.423Z,77.94
2018-04-19T05:14:59.424Z,78.22
2018-04-19T05:15:59.389Z,77.94
2018-04-19T05:16:59.362Z,77.94
2018-04-19T05:17:59.398Z,77.55
2018-04-19T05:18:59.438Z,77.46
2018-04-19T05:19:59.477Z,77.46
2018-04-19T05:20:59.390Z,76.69
2018-04-19T05:21:59.385Z,76.98
2018-04-19T05:22:59.369Z,76.89
2018-04-19T05:23:59.465Z,76.79
2018-04-19T05:24:59.447Z,76.79
2018-04-19T05:25:59.473Z,77.17
2018-04-19T05:26:59.430Z,76.50
2018-04-19T05:27:59.470Z,76.54
2018-04-19T05:29:00.391Z,76.35
2018-04-19T05:29:59.444Z,76.15
2018-04-19T05:30:59.422Z,75.77
2018-04-19T05:31:59.423Z,74.47
2018-04-19T05:32:59.514Z,74.05
2018-04-19T05:33:59.448Z,73.22
2018-04-19T05:34:59.461Z,72.97
2018-04-19T05:35:59.899Z,72.49
2018-04-19T05:36:59.497Z,72.11
2018-04-19T05:37:59.514Z,70.96
2018-04-19T05:38:59.466Z,70.99
2018-04-19T05:39:59.460Z,69.93
2018-04-19T05:40:59.487Z,69.49
2018-04-19T05:41:59.454Z,68.37
2018-04-19T05:42:59.489Z,64.98
2018-04-19T05:44:00.404Z,62.51
2018-04-19T05:44:59.499Z,63.54
2018-04-19T05:45:59.520Z,61.77
2018-04-19T05:46:59.523Z,60.55
2018-04-19T05:47:59.497Z,58.95
2018-04-19T05:48:59.575Z,59.11
2018-04-19T05:49:59.474Z,59.01
2018-04-19T05:50:59.520Z,58.37
2018-04-19T05:51:59.482Z,57.40
2018-04-19T05:52:59.512Z,58.17
2018-04-19T05:53:59.511Z,58.72
2018-04-19T05:54:59.493Z,58.85
2018-04-19T05:55:59.588Z,57.79
2018-04-19T05:56:59.655Z,56.88
2018-04-19T05:57:59.501Z,54.21
2018-04-19T05:58:59.540Z,53.47
2018-04-19T05:59:59.558Z,52.91
2018-04-19T06:00:59.666Z,51.03
2018-04-19T06:01:59.564Z,50.45
2018-04-19T06:02:59.584Z,49.95
2018-04-19T06:03:59.632Z,51.01
2018-04-19T06:04:59.555Z,50.38
2018-04-19T06:05:59.605Z,50.65
2018-04-19T06:06:59.602Z,50.13
2018-04-19T06:07:59.555Z,49.75
2018-04-19T06:08:59.618Z,50.81
2018-04-19T06:09:59.600Z,50.48
2018-04-19T06:11:00.021Z,48.74
2018-04-19T06:11:59.617Z,48.08
2018-04-19T06:12:59.602Z,48.64
2018-04-19T06:13:59.664Z,48.74
2018-04-19T06:14:59.664Z,47.33
2018-04-19T06:15:59.601Z,46.36
2018-04-19T06:16:59.663Z,47.50
2018-04-19T06:18:00.768Z,49.65
2018-04-19T06:18:59.697Z,50.40
2018-04-19T06:19:59.731Z,51.46
2018-04-19T06:20:59.665Z,50.98
2018-04-19T06:21:59.708Z,52.50
2018-04-19T06:23:10.492Z,51.46
2018-04-19T06:23:59.935Z,49.90
2018-04-19T06:24:59.893Z,48.18
2018-04-19T06:25:59.714Z,46.31
2018-04-19T06:26:59.857Z,44.88
2018-04-19T06:27:59.771Z,44.59
2018-04-19T06:28:59.767Z,43.37
2018-04-19T06:30:00.419Z,43.27
2018-04-19T06:30:59.798Z,43.54
2018-04-19T06:31:59.808Z,42.86
2018-04-19T06:33:06.688Z,43.06
2018-04-19T06:33:59.982Z,43.57
2018-04-19T06:35:00.418Z,44.54
2018-04-19T06:35:59.846Z,45.61
2018-04-19T06:36:59.835Z,46.09
2018-04-19T06:37:59.783Z,45.54
2018-04-19T06:38:59.898Z,44.27
2018-04-19T06:39:59.837Z,46.39
2018-04-19T06:40:59.921Z,45.41
2018-04-19T06:41:59.868Z,42.08
2018-04-19T06:42:59.882Z,40.99
2018-04-19T06:44:00.032Z,41.84
2018-04-19T06:44:59.817Z,41.36
2018-04-19T06:45:59.913Z,41.28
2018-04-19T06:46:59.890Z,41.84
2018-04-19T06:47:59.993Z,43.66
2018-04-19T06:48:59.921Z,43.12
2018-04-19T06:49:59.917Z,41.30
2018-04-19T06:50:59.948Z,41.69
2018-04-19T06:51:59.957Z,41.30
2018-04-19T06:52:59.996Z,41.18
2018-04-19T06:53:59.955Z,41.32
2018-04-19T06:55:15.140Z,40.15
2018-04-19T06:55:59.943Z,41.28
2018-04-19T06:56:59.979Z,41.47
2018-04-19T06:58:03.137Z,40.33
2018-04-19T06:59:00.055Z,40.25
2018-04-19T07:00:00.100Z,39.18
2018-04-19T07:01:00.082Z,40.06
2018-04-19T07:02:00.333Z,39.47
2018-04-19T07:03:00.207Z,39.78
2018-04-19T07:04:00.111Z,39.69
2018-04-19T07:05:00.111Z,39.39
2018-04-19T07:06:00.117Z,40.77
2018-04-19T07:07:01.065Z,41.84
2018-04-19T07:08:00.940Z,41.47
2018-04-19T07:09:00.960Z,41.43
2018-04-19T07:10:00.295Z,42.13
2018-04-19T07:11:00.161Z,41.01
2018-04-19T07:12:00.182Z,42.03
2018-04-19T07:13:00.356Z,42.86
2018-04-19T07:14:00.509Z,42.81
2018-04-19T07:15:00.270Z,42.08
2018-04-19T07:16:00.260Z,41.20
2018-04-19T07:17:00.321Z,41.18
2018-04-19T07:18:00.388Z,41.86
2018-04-19T07:19:00.391Z,41.61
2018-04-19T07:20:00.410Z,39.31
2018-04-19T07:21:00.958Z,40.41
2018-04-19T07:22:00.452Z,42.44
2018-04-19T07:23:01.201Z,42.25
2018-04-19T07:24:03.354Z,42.66
2018-04-19T07:25:07.552Z,40.81
2018-04-19T07:28:02.798Z,43.12
2018-04-19T07:28:32.415Z,41.14
2018-04-19T07:29:32.414Z,39.72
2018-04-19T07:30:32.435Z,39.51
2018-04-19T07:31:32.501Z,39.41
2018-04-19T07:32:33.009Z,39.62
2018-04-19T07:33:32.433Z,38.75
2018-04-19T07:34:32.442Z,39.03
2018-04-19T07:35:32.451Z,38.20
2018-04-19T07:36:32.682Z,39.43
2018-04-19T07:37:32.642Z,37.63
2018-04-19T07:38:32.533Z,36.49
2018-04-19T07:39:32.525Z,36.39
2018-04-19T07:40:32.516Z,37.62
2018-04-19T07:41:32.561Z,37.71
2018-04-19T07:42:33.422Z,38.44
2018-04-19T07:43:32.587Z,40.64
2018-04-19T07:44:32.597Z,40.08
2018-04-19T07:45:32.611Z,39.12
2018-04-19T07:46:33.408Z,39.20
2018-04-19T07:47:32.639Z,40.19
2018-04-19T07:48:33.417Z,40.39
2018-04-19T07:49:32.765Z,40.09
2018-04-19T07:50:32.685Z,41.36
2018-04-19T07:51:32.763Z,38.96
2018-04-19T07:52:32.752Z,39.28
2018-04-19T07:53:32.760Z,39.43
2018-04-19T07:54:32.944Z,39.03
2018-04-19T07:55:33.446Z,40.73
2018-04-19T07:56:32.778Z,42.15
2018-04-19T07:57:33.823Z,41.88
2018-04-19T07:58:33.091Z,41.61
2018-04-19T07:59:33.139Z,41.14
2018-04-19T08:00:33.130Z,40.48
2018-04-19T08:01:32.851Z,40.48
2018-04-19T08:02:33.090Z,41.36
2018-04-19T08:03:32.952Z,39.51
2018-04-19T08:04:34.083Z,40.31
2018-04-19T08:05:33.021Z,39.86
2018-04-19T08:06:33.601Z,38.04
2018-04-19T08:07:33.054Z,37.67
2018-04-19T08:08:32.969Z,36.82
2018-04-19T08:09:32.990Z,35.19
2018-04-19T08:10:33.036Z,35.46
2018-04-19T08:11:33.057Z,36.31
2018-04-19T08:12:33.048Z,37.19
2018-04-19T08:13:33.163Z,36.39
2018-04-19T08:14:34.221Z,38.12
2018-04-19T08:15:33.153Z,37.17
2018-04-19T08:16:33.166Z,38.43
2018-04-19T08:17:33.358Z,37.09
2018-04-19T08:18:33.201Z,37.46
2018-04-19T08:19:33.245Z,37.38
2018-04-19T08:20:33.200Z,37.60
2018-04-19T08:21:33.172Z,39.16
2018-04-19T08:22:33.199Z,38.90
2018-04-19T08:23:33.230Z,38.28
2018-04-19T08:24:33.314Z,39.75
2018-04-19T08:25:34.728Z,38.77
2018-04-19T08:26:33.326Z,39.06
2018-04-19T08:27:33.317Z,38.51
2018-04-19T08:28:33.315Z,36.82
2018-04-19T08:29:33.317Z,37.40
2018-04-19T08:30:33.510Z,37.85
2018-04-19T08:31:33.390Z,37.40
2018-04-19T08:32:33.457Z,36.51
2018-04-19T08:33:33.421Z,36.62
2018-04-19T08:34:33.411Z,36.93
2018-04-19T08:35:33.444Z,36.51
2018-04-19T08:36:33.467Z,37.09
2018-04-19T08:37:33.533Z,38.10
2018-04-19T08:38:33.512Z,38.89
2018-04-19T08:39:33.496Z,38.89
2018-04-19T08:40:33.539Z,39.75
2018-04-19T08:41:33.581Z,38.45
2018-04-19T08:42:33.619Z,37.02
2018-04-19T08:43:33.610Z,35.52
2018-04-19T08:44:33.700Z,35.94
2018-04-19T08:45:33.663Z,37.85
2018-04-19T08:46:33.657Z,39.36
2018-04-19T08:47:33.660Z,38.92
2018-04-19T08:48:33.702Z,38.53
2018-04-19T08:49:33.707Z,38.45
2018-04-19T08:50:33.759Z,36.13
2018-04-19T08:51:33.796Z,37.21
2018-04-19T08:52:33.868Z,37.01
2018-04-19T08:53:34.452Z,36.75
2018-04-19T08:54:33.854Z,35.50
2018-04-19T08:55:34.108Z,35.45
2018-04-19T08:56:33.936Z,34.20
2018-04-19T08:57:33.934Z,34.94
2018-04-19T08:58:34.181Z,34.24
2018-04-19T08:59:33.992Z,34.94
2018-04-19T09:00:33.956Z,34.67
2018-04-19T09:01:33.951Z,34.96
2018-04-19T09:02:34.009Z,33.58
2018-04-19T09:03:33.982Z,34.06
2018-04-19T09:04:33.999Z,34.44
2018-04-19T09:05:34.016Z,34.77
2018-04-19T09:06:34.061Z,32.53
2018-04-19T09:07:34.085Z,32.71
2018-04-19T09:08:34.095Z,32.84
2018-04-19T09:09:34.206Z,32.54
2018-04-19T09:10:34.138Z,32.61
2018-04-19T09:11:34.176Z,34.91
2018-04-19T09:12:34.177Z,35.03
2018-04-19T09:13:34.232Z,35.36
2018-04-19T09:14:34.255Z,36.21
2018-04-19T09:15:34.241Z,35.75
2018-04-19T09:16:34.256Z,35.95
2018-04-19T09:17:34.279Z,36.91
2018-04-19T09:18:34.313Z,35.89
2018-04-19T09:19:34.368Z,34.93
2018-04-19T09:20:34.341Z,35.11
2018-04-19T09:21:34.375Z,34.93
2018-04-19T09:22:34.423Z,32.61
2018-04-19T09:23:34.429Z,31.54
2018-04-19T09:24:34.972Z,31.35
2018-04-19T09:25:34.457Z,31.01
2018-04-19T09:26:34.471Z,31.29
2018-04-19T09:27:34.529Z,29.35
2018-04-19T09:28:34.559Z,29.34
2018-04-19T09:29:34.555Z,29.63
2018-04-19T09:30:34.670Z,30.04
2018-04-19T09:31:34.728Z,28.57
2018-04-19T09:32:34.662Z,29.17
2018-04-19T09:33:34.630Z,29.56
2018-04-19T09:34:34.788Z,28.59
2018-04-19T09:35:34.683Z,26.68
2018-04-19T09:36:34.811Z,25.72
2018-04-19T09:37:34.805Z,25.54
2018-04-19T09:38:34.757Z,25.32
2018-04-19T09:39:34.774Z,24.98
2018-04-19T09:40:34.797Z,26.34
2018-04-19T09:41:35.016Z,27.15
2018-04-19T09:42:34.849Z,26.97
2018-04-19T09:43:34.922Z,26.09
2018-04-19T09:44:35.001Z,24.71
2018-04-19T09:45:34.973Z,24.22
2018-04-19T09:46:35.105Z,23.42
2018-04-19T09:47:35.022Z,23.88
2018-04-19T09:48:35.088Z,25.15
2018-04-19T09:49:37.557Z,26.73
2018-04-19T09:50:35.047Z,24.41
2018-04-19T09:51:35.068Z,22.23
2018-04-19T09:52:35.201Z,22.99
2018-04-19T09:53:35.172Z,23.50
2018-04-19T09:54:35.188Z,23.74
2018-04-19T09:55:35.179Z,22.27
2018-04-19T09:56:35.187Z,22.28
2018-04-19T09:57:35.233Z,24.30
2018-04-19T09:58:35.265Z,23.43
2018-04-19T09:59:35.257Z,23.06
2018-04-19T10:00:35.276Z,22.19
2018-04-19T10:01:35.346Z,21.69
2018-04-19T10:02:35.343Z,21.97
2018-04-19T10:03:35.375Z,24.15
2018-04-19T10:04:35.462Z,23.21
2018-04-19T10:05:35.411Z,22.05
2018-04-19T10:06:35.988Z,22.42
2018-04-19T10:07:35.463Z,23.02
2018-04-19T10:08:35.514Z,22.16
2018-04-19T10:09:35.512Z,21.75
2018-04-19T10:10:36.994Z,22.33
2018-04-19T10:11:35.636Z,23.41
2018-04-19T10:12:35.804Z,22.92
2018-04-19T10:13:35.603Z,22.99
2018-04-19T10:14:35.655Z,23.59
2018-04-19T10:15:35.741Z,22.24
2018-04-19T10:16:35.845Z,22.14
2018-04-19T10:17:35.834Z,21.75
2018-04-19T10:18:35.747Z,21.45
2018-04-19T10:19:35.844Z,21.76
2018-04-19T10:20:35.782Z,22.06
2018-04-19T10:21:35.867Z,22.17
2018-04-19T10:22:35.882Z,20.62
2018-04-19T10:23:36.502Z,20.39
2018-04-19T10:24:36.003Z,21.24
2018-04-19T10:25:35.943Z,21.72
2018-04-19T10:26:35.946Z,23.64
2018-04-19T10:27:36.012Z,23.86
2018-04-19T10:28:36.012Z,23.77
2018-04-19T10:29:36.078Z,23.86
2018-04-19T10:30:36.050Z,24.09
2018-04-19T10:31:36.099Z,22.02
2018-04-19T10:32:36.094Z,21.83
2018-04-19T10:33:36.154Z,21.26
2018-04-19T10:34:36.292Z,20.86
2018-04-19T10:35:36.176Z,20.47
2018-04-19T10:36:36.278Z,21.56
2018-04-19T10:37:37.006Z,21.09
2018-04-19T10:38:36.408Z,20.21
2018-04-19T10:39:36.340Z,21.04
2018-04-19T10:40:36.413Z,21.44
2018-04-19T10:41:36.456Z,21.24
2018-04-19T10:42:36.473Z,21.56
2018-04-19T10:43:36.444Z,21.15
2018-04-19T10:44:36.487Z,21.64
2018-04-19T10:45:36.504Z,22.02
2018-04-19T10:46:36.575Z,22.16
2018-04-19T10:47:36.634Z,21.19
2018-04-19T10:48:36.546Z,20.75
2018-04-19T10:49:36.577Z,22.05
2018-04-19T10:50:36.726Z,21.06
2018-04-19T10:51:37.523Z,21.33
2018-04-19T10:52:36.726Z,20.75
2018-04-19T10:53:36.818Z,21.52
2018-04-19T10:54:36.791Z,22.33
2018-04-19T10:55:36.933Z,20.89
2018-04-19T10:56:36.884Z,18.83
2018-04-19T10:57:36.771Z,19.32
2018-04-19T10:58:36.868Z,19.92
2018-04-19T10:59:36.921Z,19.45
2018-04-19T11:00:37.037Z,19.10
2018-04-19T11:01:36.942Z,19.59
2018-04-19T11:02:37.037Z,19.59
2018-04-19T11:03:36.975Z,20.53
2018-04-19T11:04:37.055Z,21.01
2018-04-19T11:05:37.098Z,21.31
2018-04-19T11:06:37.031Z,22.19
2018-04-19T11:07:37.045Z,21.80
2018-04-19T11:08:37.197Z,21.99
2018-04-19T11:09:37.072Z,23.05
2018-04-19T11:10:37.130Z,22.56
2018-04-19T11:11:37.107Z,22.16
2018-04-19T11:12:37.175Z,22.95
2018-04-19T11:13:37.121Z,23.54
2018-04-19T11:14:37.134Z,22.14
2018-04-19T11:15:37.225Z,24.39
2018-04-19T11:16:37.156Z,24.85
2018-04-19T11:17:38.032Z,24.95
2018-04-19T11:18:37.260Z,24.87
2018-04-19T11:19:37.385Z,25.35
2018-04-19T11:20:37.330Z,24.87
2018-04-19T11:21:37.453Z,24.18
2018-04-19T11:22:37.383Z,23.19
2018-04-19T11:23:37.331Z,25.85
2018-04-19T11:24:37.391Z,24.29
2018-04-19T11:25:37.359Z,25.16
2018-04-19T11:26:37.505Z,24.50
2018-04-19T11:27:37.592Z,24.11
2018-04-19T11:28:37.365Z,24.21
2018-04-19T11:29:38.041Z,25.75
2018-04-19T11:30:37.492Z,24.30
2018-04-19T11:31:37.400Z,24.58
2018-04-19T11:32:37.415Z,24.46
2018-04-19T11:33:37.463Z,24.65
2018-04-19T11:34:37.455Z,25.92
2018-04-19T11:35:38.042Z,26.21
2018-04-19T11:36:37.510Z,26.80
2018-04-19T11:37:37.527Z,27.48
2018-04-19T11:38:37.539Z,28.34
2018-04-19T11:39:37.548Z,28.25
2018-04-19T11:40:37.607Z,28.54
2018-04-19T11:41:37.562Z,28.26
2018-04-19T11:42:37.604Z,27.00
2018-04-19T11:43:37.615Z,27.56
2018-04-19T11:44:38.745Z,27.97
2018-04-19T11:45:40.139Z,27.47
2018-04-19T11:46:37.621Z,27.86
2018-04-19T11:47:37.756Z,27.66
2018-04-19T11:48:37.668Z,27.55
2018-04-19T11:49:37.868Z,28.23
2018-04-19T11:50:38.549Z,28.80
2018-04-19T11:51:37.708Z,29.02
2018-04-19T11:52:37.834Z,29.02
2018-04-19T11:53:37.943Z,29.40
2018-04-19T11:54:37.815Z,29.13
2018-04-19T11:55:37.787Z,28.64
2018-04-19T11:56:38.152Z,28.15
2018-04-19T11:57:38.254Z,27.87
2018-04-19T11:58:37.915Z,27.00
2018-04-19T11:59:39.565Z,26.90
2018-04-19T12:00:38.238Z,26.80
2018-04-19T12:01:37.937Z,26.80
2018-04-19T12:02:39.326Z,27.69
2018-04-19T12:03:38.428Z,26.59
2018-04-19T12:04:38.123Z,27.19
2018-04-19T12:05:37.847Z,26.89
2018-04-19T12:06:38.035Z,27.78
2018-04-19T12:07:38.698Z,27.86
2018-04-19T12:08:37.983Z,27.95
2018-04-19T12:09:39.438Z,27.84
2018-04-19T12:10:38.375Z,28.53
2018-04-19T12:11:39.625Z,28.85
2018-04-19T12:12:41.239Z,26.89
2018-04-19T12:13:38.029Z,27.47
2018-04-19T12:14:39.841Z,27.66
2018-04-19T12:15:39.387Z,29.02
2018-04-19T12:16:39.698Z,28.23
2018-04-19T12:17:38.402Z,28.34
2018-04-19T12:18:40.221Z,27.94
2018-04-19T12:19:41.407Z,27.18
2018-04-19T12:20:41.271Z,27.65
2018-04-19T12:21:38.130Z,27.76
2018-04-19T12:22:38.152Z,26.68
2018-04-19T12:23:53.833Z,26.97
2018-04-19T12:24:38.246Z,26.87
2018-04-19T12:25:38.997Z,27.05
2018-04-19T12:26:38.265Z,27.06
2018-04-19T12:27:38.600Z,27.84
2018-04-19T12:28:39.513Z,27.47
2018-04-19T12:29:38.111Z,26.98
2018-04-19T12:30:38.499Z,27.66
2018-04-19T12:31:38.191Z,27.06
2018-04-19T12:32:38.221Z,27.65
2018-04-19T12:33:38.262Z,27.06
2018-04-19T12:34:38.158Z,27.83
2018-04-19T12:35:38.411Z,28.70
2018-04-19T12:36:38.183Z,28.61
2018-04-19T12:37:38.251Z,28.33
2018-04-19T12:38:38.243Z,28.14
2018-04-19T12:39:38.248Z,28.63
2018-04-19T12:40:38.234Z,28.33
2018-04-19T12:41:38.339Z,28.33
2018-04-19T12:42:38.302Z,28.04
2018-04-19T12:43:38.370Z,28.33
2018-04-19T12:44:38.287Z,28.90
2018-04-19T12:45:39.091Z,28.90
2018-04-19T12:46:38.311Z,29.21
2018-04-19T12:47:38.320Z,28.92
2018-04-19T12:48:39.285Z,29.21
2018-04-19T12:49:38.407Z,28.53
2018-04-19T12:50:38.341Z,28.90
2018-04-19T12:51:39.094Z,29.29
2018-04-19T12:52:38.398Z,29.19
2018-04-19T12:53:38.371Z,29.29
2018-04-19T12:54:38.368Z,29.29